createdAt,value
2023-06-17T00:01:08.464Z,67.05
2023-06-17T00:03:35.515Z,69.06
2023-06-17T00:06:02.430Z,70.05
2023-06-17T00:08:29.489Z,71.78
2023-06-17T00:10:56.479Z,73.63
2023-06-17T00:13:24.096Z,73.32
2023-06-17T00:15:52.444Z,73.37
2023-06-17T00:18:21.201Z,69.38
2023-06-17T00:20:48.881Z,72.94
2023-06-17T00:23:15.826Z,72.66
2023-06-17T00:25:42.834Z,74.30
2023-06-17T00:28:09.844Z,73.84
2023-06-17T00:30:37.880Z,73.05
2023-06-17T00:33:05.611Z,74.23
2023-06-17T00:35:32.983Z,75.74
2023-06-17T00:38:01.156Z,77.35
2023-06-17T00:40:28.357Z,76.29
2023-06-17T00:42:55.313Z,76.05
2023-06-17T00:45:22.206Z,76.70
2023-06-17T00:47:49.293Z,79.55
2023-06-17T00:50:17.401Z,77.85
2023-06-17T00:52:46.653Z,77.69
2023-06-17T00:55:13.809Z,78.67
2023-06-17T00:57:41.030Z,80.53
2023-06-17T01:00:12.393Z,78.24
2023-06-17T01:02:45.666Z,80.63
2023-06-17T01:05:16.551Z,78.84
2023-06-17T01:07:59.993Z,78.64
2023-06-17T01:10:50.257Z,78.78
2023-06-17T01:13:18.050Z,79.52
2023-06-17T01:15:45.313Z,78.91
2023-06-17T01:18:13.122Z,78.90
2023-06-17T01:20:41.884Z,77.96
2023-06-17T01:23:12.168Z,80.07
2023-06-17T01:25:41.009Z,78.38
2023-06-17T01:28:18.101Z,79.69
2023-06-17T01:30:49.509Z,80.57
2023-06-17T01:33:17.219Z,80.12
2023-06-17T01:36:05.704Z,82.69
2023-06-17T01:38:38.511Z,80.50
2023-06-17T01:41:12.220Z,82.89
2023-06-17T01:43:41.952Z,83.55
2023-06-17T01:46:08.858Z,81.95
2023-06-17T01:48:36.043Z,82.86
2023-06-17T01:51:03.182Z,80.86
2023-06-17T01:53:30.163Z,83.89
2023-06-17T01:55:57.214Z,85.09
2023-06-17T01:58:24.430Z,83.97
2023-06-17T02:00:51.496Z,83.20
2023-06-17T02:03:18.956Z,85.43
2023-06-17T02:05:46.193Z,86.29
2023-06-17T02:08:13.611Z,84.27
2023-06-17T02:10:40.596Z,82.32
2023-06-17T02:13:09.511Z,84.25
2023-06-17T02:15:36.553Z,84.78
2023-06-17T02:18:03.721Z,83.88
2023-06-17T02:20:30.734Z,83.48
2023-06-17T02:22:57.688Z,84.66
2023-06-17T02:25:24.708Z,83.03
2023-06-17T02:27:52.932Z,82.96
2023-06-17T02:30:20.036Z,82.21
2023-06-17T02:32:47.263Z,85.03
2023-06-17T02:35:15.350Z,84.39
2023-06-17T02:37:42.756Z,83.80
2023-06-17T02:40:10.648Z,81.78
2023-06-17T02:42:42.097Z,82.66
2023-06-17T02:45:12.807Z,85.83
2023-06-17T02:47:42.242Z,87.65
2023-06-17T02:50:09.794Z,84.67
2023-06-17T02:52:38.610Z,86.58
2023-06-17T02:55:07.054Z,86.02
2023-06-17T02:57:34.156Z,85.25
2023-06-17T03:00:01.327Z,84.10
2023-06-17T03:02:28.370Z,84.26
2023-06-17T03:04:55.533Z,83.02
2023-06-17T03:07:22.848Z,84.43
2023-06-17T03:09:49.951Z,85.89
2023-06-17T03:12:16.984Z,87.11
2023-06-17T03:14:43.901Z,88.57
2023-06-17T03:17:12.199Z,89.39
2023-06-17T03:19:39.230Z,88.47
2023-06-17T03:22:07.212Z,91.37
2023-06-17T03:24:34.216Z,90.61
2023-06-17T03:27:01.314Z,90.66
2023-06-17T03:29:29.027Z,93.35
2023-06-17T03:31:58.561Z,91.96
2023-06-17T03:34:26.151Z,90.97
2023-06-17T03:36:53.171Z,90.50
2023-06-17T03:39:20.116Z,91.01
2023-06-17T03:41:47.041Z,90.47
2023-06-17T03:44:13.994Z,86.77
2023-06-17T03:46:41.057Z,85.31
2023-06-17T03:49:07.978Z,82.35
2023-06-17T03:51:35.005Z,80.49
2023-06-17T03:54:03.797Z,78.81
2023-06-17T03:56:31.471Z,77.05
2023-06-17T03:58:58.473Z,73.72
2023-06-17T04:01:25.393Z,71.43
2023-06-17T04:03:52.608Z,69.16
2023-06-17T04:06:19.833Z,66.67
2023-06-17T04:08:48.400Z,66.14
2023-06-17T04:11:16.550Z,63.40
2023-06-17T04:13:43.522Z,61.63
2023-06-17T04:16:10.450Z,60.31
2023-06-17T04:18:37.418Z,58.32
2023-06-17T04:21:04.281Z,59.17
2023-06-17T04:23:31.276Z,56.17
2023-06-17T04:25:58.227Z,54.39
2023-06-17T04:28:25.192Z,55.64
2023-06-17T04:30:52.998Z,54.89
2023-06-17T04:33:19.944Z,54.37
2023-06-17T04:35:48.663Z,52.56
2023-06-17T04:38:15.962Z,51.70
2023-06-17T04:40:43.001Z,51.23
2023-06-17T04:43:11.192Z,51.56
2023-06-17T04:45:38.080Z,52.07
2023-06-17T04:48:05.429Z,51.70
2023-06-17T04:50:35.226Z,51.63
2023-06-17T04:53:05.120Z,52.65
2023-06-17T04:55:37.024Z,50.73
2023-06-17T04:58:06.630Z,50.90
2023-06-17T05:00:33.510Z,49.83
2023-06-17T05:03:00.482Z,49.30
2023-06-17T05:05:27.453Z,48.41
2023-06-17T05:07:54.407Z,48.12
2023-06-17T05:10:21.730Z,48.57
2023-06-17T05:12:48.860Z,48.59
2023-06-17T05:15:15.946Z,49.86
2023-06-17T05:17:45.013Z,48.33
2023-06-17T05:20:12.513Z,48.77
2023-06-17T05:22:39.826Z,48.04
2023-06-17T05:25:07.762Z,48.34
2023-06-17T05:27:34.910Z,47.80
2023-06-17T05:30:01.934Z,46.70
2023-06-17T05:32:29.238Z,48.35
2023-06-17T05:34:56.160Z,49.44
2023-06-17T05:37:23.148Z,47.87
2023-06-17T05:39:50.155Z,47.69
2023-06-17T05:42:17.076Z,47.28
2023-06-17T05:44:44.027Z,47.12
2023-06-17T05:47:11.089Z,47.73
2023-06-17T05:49:38.057Z,47.88
2023-06-17T05:52:05.478Z,47.67
2023-06-17T05:54:32.438Z,46.79
2023-06-17T05:56:59.424Z,47.67
2023-06-17T05:59:28.358Z,48.33
2023-06-17T06:01:55.533Z,46.13
2023-06-17T06:04:22.626Z,47.51
2023-06-17T06:06:49.617Z,45.95
2023-06-17T06:09:16.821Z,49.74
2023-06-17T06:11:43.740Z,47.27
2023-06-17T06:14:10.693Z,46.62
2023-06-17T06:16:37.693Z,45.88
2023-06-17T06:19:04.834Z,46.83
2023-06-17T06:21:31.766Z,45.90
2023-06-17T06:23:59.108Z,46.72
2023-06-17T06:26:26.795Z,44.08
2023-06-17T06:28:54.693Z,44.87
2023-06-17T06:31:21.618Z,43.94
2023-06-17T06:33:48.808Z,47.96
2023-06-17T06:36:15.788Z,47.53
2023-06-17T06:38:42.885Z,49.10
2023-06-17T06:41:09.853Z,50.51
2023-06-17T06:43:36.839Z,50.36
2023-06-17T06:46:04.065Z,53.17
2023-06-17T06:48:31.002Z,51.89
2023-06-17T06:50:58.273Z,50.31
2023-06-17T06:53:25.584Z,52.02
2023-06-17T06:55:52.642Z,50.51
2023-06-17T06:58:19.567Z,49.53
2023-06-17T07:00:46.548Z,51.96
2023-06-17T07:03:13.664Z,50.54
2023-06-17T07:05:40.718Z,51.23
2023-06-17T07:08:07.829Z,48.56
2023-06-17T07:10:34.927Z,48.06
2023-06-17T07:13:01.955Z,46.49
2023-06-17T07:15:29.071Z,45.42
2023-06-17T07:17:56.034Z,44.95
2023-06-17T07:20:23.491Z,46.15
2023-06-17T07:22:50.679Z,45.98
2023-06-17T07:25:17.737Z,47.28
2023-06-17T07:27:44.722Z,48.07
2023-06-17T07:30:12.249Z,44.43
2023-06-17T07:32:39.297Z,47.36
2023-06-17T07:35:07.096Z,45.58
2023-06-17T07:37:34.240Z,46.68
2023-06-17T07:40:01.252Z,43.96
2023-06-17T07:42:28.193Z,45.51
2023-06-17T07:44:55.151Z,43.11
2023-06-17T07:47:22.177Z,45.82
2023-06-17T07:49:49.158Z,43.08
2023-06-17T07:52:16.302Z,42.62
2023-06-17T07:54:43.215Z,42.75
2023-06-17T07:57:10.231Z,42.15
2023-06-17T07:59:37.166Z,42.28
2023-06-17T08:02:05.986Z,41.23
2023-06-17T08:04:34.425Z,43.55
2023-06-17T08:07:01.759Z,40.78
2023-06-17T08:09:29.233Z,42.69
2023-06-17T08:11:56.297Z,39.03
2023-06-17T08:14:23.261Z,39.78
2023-06-17T08:16:50.305Z,36.71
2023-06-17T08:19:17.317Z,37.60
2023-06-17T08:21:45.852Z,37.67
2023-06-17T08:24:23.743Z,37.73
2023-06-17T08:26:51.949Z,40.98
2023-06-17T08:29:19.797Z,41.58
2023-06-17T08:31:50.129Z,40.79
2023-06-17T08:34:17.127Z,41.55
2023-06-17T08:36:46.808Z,37.93
2023-06-17T08:39:14.330Z,38.25
2023-06-17T08:41:43.314Z,37.83
2023-06-17T08:44:13.134Z,38.38
2023-06-17T08:46:45.858Z,37.54
2023-06-17T08:49:14.480Z,36.74
2023-06-17T08:51:42.062Z,37.92
2023-06-17T08:54:11.788Z,37.67
2023-06-17T08:56:39.602Z,36.81
2023-06-17T08:59:06.634Z,35.51
2023-06-17T09:01:34.238Z,37.42
2023-06-17T09:04:02.352Z,35.61
2023-06-17T09:06:30.794Z,36.71
2023-06-17T09:08:59.350Z,35.44
2023-06-17T09:11:29.445Z,35.42
2023-06-17T09:14:01.950Z,37.76
2023-06-17T09:16:29.484Z,38.60
2023-06-17T09:19:08.195Z,39.43
2023-06-17T09:21:36.512Z,39.81
2023-06-17T09:24:07.772Z,37.24
2023-06-17T09:26:36.799Z,36.96
2023-06-17T09:29:08.621Z,37.65
2023-06-17T09:31:51.902Z,38.60
2023-06-17T09:34:20.148Z,36.64
2023-06-17T09:36:48.098Z,35.93
2023-06-17T09:39:15.068Z,35.93
2023-06-17T09:41:44.112Z,34.53
2023-06-17T09:44:12.881Z,36.13
2023-06-17T09:46:48.029Z,33.32
2023-06-17T09:49:23.263Z,33.74
2023-06-17T09:51:53.113Z,34.34
2023-06-17T09:54:23.573Z,33.63
2023-06-17T09:56:53.641Z,36.50
2023-06-17T09:59:23.055Z,36.08
2023-06-17T10:01:56.142Z,34.45
2023-06-17T10:04:23.304Z,33.72
2023-06-17T10:06:55.002Z,34.23
2023-06-17T10:09:22.603Z,34.15
2023-06-17T10:11:54.526Z,35.10
2023-06-17T10:14:33.063Z,34.47
2023-06-17T10:17:01.877Z,37.12
2023-06-17T10:19:33.436Z,35.94
2023-06-17T10:22:02.891Z,36.46
2023-06-17T10:24:30.262Z,36.11
2023-06-17T10:29:30.985Z,34.13
2023-06-17T10:32:17.671Z,36.03
2023-06-17T10:35:07.387Z,34.82
2023-06-17T10:37:52.617Z,31.68
2023-06-17T10:40:25.151Z,33.81
2023-06-17T10:43:01.846Z,34.15
2023-06-17T10:45:48.186Z,34.21
2023-06-17T10:48:18.181Z,33.67
2023-06-17T10:50:50.970Z,35.13
2023-06-17T10:53:19.021Z,35.12
2023-06-17T10:55:47.292Z,32.21
2023-06-17T10:58:14.159Z,32.53
2023-06-17T11:00:41.290Z,34.59
2023-06-17T11:03:10.511Z,31.88
2023-06-17T11:05:37.861Z,32.25
2023-06-17T11:08:05.547Z,33.62
2023-06-17T11:10:33.300Z,32.21
2023-06-17T11:13:00.265Z,35.70
2023-06-17T11:15:27.280Z,32.19
2023-06-17T11:18:01.652Z,32.62
2023-06-17T11:20:34.802Z,31.76
2023-06-17T11:23:04.107Z,33.77
2023-06-17T11:25:40.357Z,32.59
2023-06-17T11:28:13.056Z,33.52
2023-06-17T11:30:41.939Z,31.05
2023-06-17T11:33:09.625Z,29.27
2023-06-17T11:35:38.393Z,31.76
2023-06-17T11:38:06.413Z,29.61
2023-06-17T11:40:33.384Z,29.71
2023-06-17T11:43:01.528Z,29.48
2023-06-17T11:45:31.526Z,29.64
2023-06-17T11:47:58.848Z,32.13
2023-06-17T11:50:31.457Z,34.86
2023-06-17T11:52:59.341Z,33.06
2023-06-17T11:55:36.676Z,33.61
2023-06-17T11:58:06.039Z,31.98
2023-06-17T12:00:37.279Z,32.04
2023-06-17T12:03:15.377Z,31.87
2023-06-17T12:05:42.549Z,31.89
2023-06-17T12:08:10.665Z,31.17
2023-06-17T12:10:40.418Z,31.24
2023-06-17T12:13:12.975Z,33.24
2023-06-17T12:15:40.244Z,29.66
2023-06-17T12:18:12.895Z,33.08
2023-06-17T12:20:50.089Z,31.79
2023-06-17T12:23:17.079Z,31.16
2023-06-17T12:25:44.464Z,33.20
2023-06-17T12:28:11.381Z,29.49
2023-06-17T12:30:40.500Z,30.25
2023-06-17T12:33:07.430Z,29.71
2023-06-17T12:35:34.381Z,30.08
2023-06-17T12:38:01.545Z,31.92
2023-06-17T12:40:29.315Z,30.09
2023-06-17T12:42:56.255Z,28.91
2023-06-17T12:45:23.773Z,31.06
2023-06-17T12:47:50.979Z,28.19
2023-06-17T12:50:18.184Z,29.29
2023-06-17T12:52:45.458Z,28.87
2023-06-17T12:55:12.455Z,29.21
2023-06-17T12:57:39.496Z,30.40
2023-06-17T13:00:07.679Z,29.89
2023-06-17T13:02:37.204Z,28.89
2023-06-17T13:05:04.602Z,29.34
2023-06-17T13:07:31.455Z,29.31
2023-06-17T13:09:58.680Z,32.41
2023-06-17T13:12:25.742Z,32.32
2023-06-17T13:14:52.756Z,30.65
2023-06-17T13:17:19.756Z,29.62
2023-06-17T13:19:47.935Z,30.72
2023-06-17T13:22:15.005Z,31.66
2023-06-17T13:24:41.957Z,33.03
2023-06-17T13:27:09.190Z,31.86
2023-06-17T13:29:36.442Z,32.80
2023-06-17T13:32:03.770Z,36.10
2023-06-17T13:34:30.681Z,30.45
2023-06-17T13:36:57.811Z,33.68
2023-06-17T13:39:24.718Z,32.83
2023-06-17T13:41:51.726Z,33.36
2023-06-17T13:44:18.680Z,34.48
2023-06-17T13:46:46.327Z,34.84
2023-06-17T13:49:13.435Z,34.87
2023-06-17T13:51:40.621Z,34.88
2023-06-17T13:54:07.648Z,33.86
2023-06-17T13:56:34.707Z,34.20
2023-06-17T13:59:01.653Z,35.25
2023-06-17T14:01:28.710Z,36.39
2023-06-17T14:03:55.879Z,34.76
2023-06-17T14:06:23.134Z,35.07
2023-06-17T14:08:50.075Z,31.34
2023-06-17T14:11:17.462Z,31.52
2023-06-17T14:13:44.796Z,32.38
2023-06-17T14:16:13.068Z,33.46
2023-06-17T14:18:40.242Z,32.87
2023-06-17T14:21:07.603Z,30.75
2023-06-17T14:23:34.648Z,31.55
2023-06-17T14:26:01.617Z,30.53
2023-06-17T14:28:28.557Z,30.76
2023-06-17T14:30:55.583Z,31.79
2023-06-17T14:33:22.593Z,31.19
2023-06-17T14:35:49.504Z,33.78
2023-06-17T14:38:16.520Z,35.58
2023-06-17T14:40:45.120Z,35.17
2023-06-17T14:43:12.201Z,32.10
2023-06-17T14:45:39.175Z,32.68
2023-06-17T14:48:06.377Z,33.38
2023-06-17T14:50:33.468Z,34.24
2023-06-17T14:53:00.452Z,33.85
2023-06-17T14:55:27.468Z,31.88
2023-06-17T14:57:54.444Z,32.02
2023-06-17T15:00:21.861Z,31.17
2023-06-17T15:02:59.605Z,32.69
2023-06-17T15:05:28.354Z,30.22
2023-06-17T15:07:55.701Z,30.05
2023-06-17T15:10:22.998Z,31.16
2023-06-17T15:12:50.346Z,31.03
2023-06-17T15:15:18.387Z,30.66
2023-06-17T15:17:45.679Z,30.79
2023-06-17T15:20:12.838Z,30.51
2023-06-17T15:22:40.234Z,31.00
2023-06-17T15:25:08.536Z,31.16
2023-06-17T15:27:36.074Z,30.95
2023-06-17T15:30:03.899Z,30.66
2023-06-17T15:32:31.075Z,31.95
2023-06-17T15:35:00.029Z,30.85
2023-06-17T15:37:30.700Z,32.00
2023-06-17T15:39:57.880Z,31.08
2023-06-17T15:42:24.932Z,31.51
2023-06-17T15:44:52.029Z,31.64
2023-06-17T15:47:19.043Z,32.32
2023-06-17T15:49:46.023Z,33.22
2023-06-17T15:52:12.999Z,33.08
2023-06-17T15:54:39.981Z,32.89
2023-06-17T15:57:09.622Z,34.59
2023-06-17T15:59:37.159Z,33.41
2023-06-17T16:02:04.606Z,32.85
2023-06-17T16:04:33.750Z,32.42
2023-06-17T16:07:02.667Z,32.98
2023-06-17T16:09:36.694Z,35.43
2023-06-17T16:12:05.281Z,34.49
2023-06-17T16:14:37.222Z,34.79
2023-06-17T16:17:07.036Z,36.26
2023-06-17T16:19:38.117Z,36.03
2023-06-17T16:22:07.365Z,35.40
2023-06-17T16:24:34.633Z,36.14
2023-06-17T16:27:01.836Z,35.89
2023-06-17T16:29:28.857Z,35.04
2023-06-17T16:31:56.968Z,34.74
2023-06-17T16:34:24.165Z,34.36
2023-06-17T16:36:51.733Z,35.87
2023-06-17T16:39:19.050Z,36.42
2023-06-17T16:41:46.065Z,35.58
2023-06-17T16:44:13.248Z,35.21
2023-06-17T16:46:40.435Z,35.35
2023-06-17T16:49:07.566Z,36.46
2023-06-17T16:51:34.503Z,36.14
2023-06-17T16:54:04.533Z,37.01
2023-06-17T16:56:33.232Z,38.40
2023-06-17T16:59:00.271Z,36.70
2023-06-17T17:01:27.376Z,38.43
2023-06-17T17:03:54.447Z,37.83
2023-06-17T17:06:21.486Z,38.54
2023-06-17T17:08:49.873Z,38.84
2023-06-17T17:11:17.401Z,39.35
2023-06-17T17:13:49.198Z,39.56
2023-06-17T17:16:17.263Z,39.32
2023-06-17T17:18:44.295Z,38.68
2023-06-17T17:21:12.840Z,40.23
2023-06-17T17:23:43.489Z,39.29
2023-06-17T17:26:13.689Z,39.20
2023-06-17T17:28:41.688Z,40.01
2023-06-17T17:31:10.024Z,40.41
2023-06-17T17:33:37.341Z,40.85
2023-06-17T17:36:04.570Z,40.61
2023-06-17T17:38:31.644Z,40.92
2023-06-17T17:40:58.583Z,40.73
2023-06-17T17:43:25.423Z,40.97
2023-06-17T17:45:52.359Z,41.15
2023-06-17T17:48:19.341Z,42.54
2023-06-17T17:50:46.676Z,41.15
2023-06-17T17:53:13.803Z,42.07
2023-06-17T17:55:40.800Z,41.33
2023-06-17T17:58:07.706Z,42.30
2023-06-17T18:00:35.062Z,42.37
2023-06-17T18:03:02.042Z,42.04
2023-06-17T18:05:29.060Z,42.03
2023-06-17T18:07:55.953Z,42.91
2023-06-17T18:10:23.273Z,42.61
2023-06-17T18:12:50.373Z,42.10
2023-06-17T18:15:17.294Z,42.67
2023-06-17T18:17:44.163Z,42.92
2023-06-17T18:20:11.330Z,43.11
2023-06-17T18:22:38.840Z,43.10
2023-06-17T18:25:06.962Z,43.55
2023-06-17T18:27:36.717Z,43.50
2023-06-17T18:30:04.952Z,44.13
2023-06-17T18:32:32.338Z,43.97
2023-06-17T18:34:59.293Z,43.70
2023-06-17T18:37:26.328Z,43.97
2023-06-17T18:39:53.369Z,44.76
2023-06-17T18:42:20.380Z,46.19
2023-06-17T18:44:47.279Z,47.67
2023-06-17T18:47:14.175Z,50.33
2023-06-17T18:49:42.061Z,48.76
2023-06-17T18:52:08.960Z,48.85
2023-06-17T18:54:35.937Z,50.78
2023-06-17T18:57:02.871Z,51.64
2023-06-17T18:59:29.783Z,53.86
2023-06-17T19:01:56.694Z,54.31
2023-06-17T19:04:23.666Z,53.26
2023-06-17T19:06:50.705Z,53.94
2023-06-17T19:09:17.667Z,55.03
2023-06-17T19:11:44.589Z,53.15
2023-06-17T19:14:12.124Z,54.01
2023-06-17T19:16:39.165Z,54.31
2023-06-17T19:19:06.188Z,53.06
2023-06-17T19:21:33.281Z,51.73
2023-06-17T19:24:00.274Z,51.99
2023-06-17T19:26:27.252Z,51.84
2023-06-17T19:28:54.309Z,50.95
2023-06-17T19:31:22.569Z,53.04
2023-06-17T19:33:49.576Z,54.55
2023-06-17T19:36:16.799Z,55.88
2023-06-17T19:38:43.844Z,55.37
2023-06-17T19:41:10.932Z,55.77
2023-06-17T19:43:37.841Z,55.00
2023-06-17T19:46:05.082Z,53.82
2023-06-17T19:48:32.636Z,54.62
2023-06-17T19:51:02.708Z,55.29
2023-06-17T19:53:29.636Z,54.50
2023-06-17T19:55:56.815Z,54.96
2023-06-17T19:58:23.765Z,55.98
2023-06-17T20:00:50.732Z,60.37
2023-06-17T20:03:17.739Z,62.14
2023-06-17T20:05:46.430Z,63.71
2023-06-17T20:08:14.691Z,65.19
2023-06-17T20:10:42.941Z,67.42
2023-06-17T20:13:10.245Z,68.39
2023-06-17T20:15:38.239Z,69.45
2023-06-17T20:18:05.575Z,68.46
2023-06-17T20:20:33.436Z,66.01
2023-06-17T20:23:00.557Z,67.32
2023-06-17T20:25:28.436Z,66.86
2023-06-17T20:27:55.498Z,66.28
2023-06-17T20:30:23.084Z,67.14
2023-06-17T20:32:50.148Z,65.03
2023-06-17T20:35:17.190Z,65.09
2023-06-17T20:37:44.780Z,66.54
2023-06-17T20:40:12.136Z,63.78
2023-06-17T20:42:39.300Z,63.68
2023-06-17T20:45:08.626Z,64.62
2023-06-17T20:47:35.833Z,64.84
2023-06-17T20:50:02.857Z,66.34
2023-06-17T20:52:29.735Z,66.90
2023-06-17T20:54:56.637Z,68.71
2023-06-17T20:57:23.563Z,70.70
2023-06-17T20:59:51.277Z,70.45
2023-06-17T21:02:19.894Z,70.45
2023-06-17T21:04:46.857Z,71.11
2023-06-17T21:07:13.841Z,72.00
2023-06-17T21:09:41.308Z,73.43
2023-06-17T21:12:08.495Z,74.20
2023-06-17T21:14:35.364Z,75.06
2023-06-17T21:17:02.317Z,71.17
2023-06-17T21:19:29.214Z,71.01
2023-06-17T21:21:56.129Z,69.13
2023-06-17T21:24:23.032Z,68.60
2023-06-17T21:26:49.959Z,69.40
2023-06-17T21:29:16.911Z,68.13
2023-06-17T21:31:43.871Z,69.85
2023-06-17T21:34:10.786Z,69.50
2023-06-17T21:36:37.782Z,69.99
2023-06-17T21:39:04.655Z,72.28
2023-06-17T21:41:31.560Z,72.66
2023-06-17T21:43:58.479Z,74.01
2023-06-17T21:46:30.221Z,76.32
2023-06-17T21:48:57.488Z,76.28
2023-06-17T21:51:24.502Z,75.51
2023-06-17T21:53:52.273Z,73.31
2023-06-17T21:56:19.181Z,72.21
2023-06-17T21:58:46.559Z,71.73
2023-06-17T22:01:13.564Z,71.48
2023-06-17T22:03:41.576Z,71.35
2023-06-17T22:06:08.929Z,71.46
2023-06-17T22:08:42.885Z,70.29
2023-06-17T22:11:12.274Z,70.57
2023-06-17T22:13:39.690Z,69.16
2023-06-17T22:16:06.579Z,65.43
2023-06-17T22:18:33.536Z,63.96
2023-06-17T22:21:00.448Z,63.41
2023-06-17T22:23:27.338Z,63.26
2023-06-17T22:25:56.881Z,62.48
2023-06-17T22:28:23.734Z,62.22
2023-06-17T22:30:51.200Z,65.80
2023-06-17T22:33:18.213Z,67.60
2023-06-17T22:35:45.184Z,67.99
2023-06-17T22:38:14.051Z,69.19
2023-06-17T22:40:40.966Z,70.17
2023-06-17T22:43:08.066Z,70.13
2023-06-17T22:45:35.154Z,68.68
2023-06-17T22:48:04.084Z,66.77
2023-06-17T22:50:31.743Z,67.89
2023-06-17T22:52:58.583Z,69.70
2023-06-17T22:55:25.915Z,70.07
2023-06-17T22:57:52.792Z,73.74
2023-06-17T23:00:20.155Z,74.48
2023-06-17T23:02:47.370Z,75.96
2023-06-17T23:05:14.574Z,73.29
2023-06-17T23:07:41.441Z,73.04
2023-06-17T23:10:08.494Z,73.24
2023-06-17T23:12:35.452Z,74.86
2023-06-17T23:15:03.433Z,75.59
2023-06-17T23:17:30.307Z,71.87
2023-06-17T23:19:59.977Z,73.64
2023-06-17T23:22:28.090Z,74.37
2023-06-17T23:24:55.134Z,75.77
2023-06-17T23:27:28.062Z,75.42
2023-06-17T23:29:56.197Z,74.50
2023-06-17T23:32:23.785Z,77.05
2023-06-17T23:34:53.951Z,78.00
2023-06-17T23:37:21.565Z,77.93
2023-06-17T23:39:48.816Z,78.87
2023-06-17T23:42:15.795Z,77.87
2023-06-17T23:44:43.572Z,81.91
2023-06-17T23:47:16.395Z,81.18
2023-06-17T23:49:43.339Z,78.28
2023-06-17T23:52:11.356Z,75.60
2023-06-17T23:54:38.995Z,74.82
2023-06-17T23:57:06.513Z,75.30
2023-06-17T23:59:34.020Z,73.99
